Time;durP1;ratioP1;P1;durP2;ratioP2;P2;SDS_P1;SDS_P2;PMS_P1;PMS_P2;Temp;Humidity;BMP_temperature;BMP_pressure;BME280_temperature;BME280_humidity;BME280_pressure;Samples;Min_cycle;Max_cycle;Signal;HPM_P1;HPM_P2
2023/12/17 00:02:34;;;;;;;15.45;12.32;;;;;;;9.17;100.00;103667.88;4760266;30;20047;-68
2023/12/17 00:05:22;;;;;;;17.38;13.30;;;;;;;9.16;100.00;103666.19;4768479;30;20051;-69
2023/12/17 00:08:10;;;;;;;15.35;12.50;;;;;;;9.17;100.00;103665.16;4776262;30;20516;-69
2023/12/17 00:10:59;;;;;;;15.45;12.30;;;;;;;9.16;100.00;103658.00;4764255;30;20520;-68
2023/12/17 00:13:47;;;;;;;15.15;11.40;;;;;;;9.18;100.00;103653.22;4787616;30;20048;-69
2023/12/17 00:16:35;;;;;;;14.65;11.75;;;;;;;9.18;100.00;103647.78;4787296;29;20126;-69
2023/12/17 00:19:23;;;;;;;14.70;10.85;;;;;;;9.20;100.00;103651.16;4787501;30;20055;-69
2023/12/17 00:22:11;;;;;;;15.57;12.32;;;;;;;9.20;100.00;103643.00;4774107;30;20054;-69
2023/12/17 00:24:59;;;;;;;14.52;12.15;;;;;;;9.20;100.00;103643.00;4788257;30;20132;-69
2023/12/17 00:27:47;;;;;;;14.27;11.20;;;;;;;9.20;100.00;103637.56;4772296;29;20127;-69
2023/12/17 00:30:34;;;;;;;17.67;14.13;;;;;;;9.20;100.00;103642.16;4757849;30;20486;-70
2023/12/17 00:33:23;;;;;;;18.33;14.48;;;;;;;9.20;100.00;103640.28;4775357;30;20055;-68
2023/12/17 00:36:11;;;;;;;18.48;13.35;;;;;;;9.21;100.00;103641.13;4785884;30;20058;-69
2023/12/17 00:38:59;;;;;;;15.95;12.73;;;;;;;9.19;100.00;103638.63;4786465;30;20425;-69
2023/12/17 00:41:47;;;;;;;15.13;12.45;;;;;;;9.20;100.00;103634.84;4776216;30;20055;-69
2023/12/17 00:44:35;;;;;;;15.98;12.70;;;;;;;9.20;100.00;103637.56;4788991;29;20143;-69
2023/12/17 00:47:23;;;;;;;15.88;12.75;;;;;;;9.20;100.00;103632.13;4774248;30;20077;-69
2023/12/17 00:50:11;;;;;;;13.00;11.23;;;;;;;9.21;100.00;103636.53;4787042;30;20051;-69
2023/12/17 00:52:59;;;;;;;14.52;11.80;;;;;;;9.21;100.00;103635.69;4762340;30;20160;-69
2023/12/17 00:55:47;;;;;;;18.40;11.95;;;;;;;9.21;100.00;103625.63;4775055;30;20188;-68
2023/12/17 00:58:35;;;;;;;16.95;13.10;;;;;;;9.21;100.00;103630.25;4787032;30;20126;-70
2023/12/17 01:01:23;;;;;;;13.98;12.23;;;;;;;9.21;100.00;103625.63;4788596;30;20085;-69
2023/12/17 01:04:11;;;;;;;14.32;11.57;;;;;;;9.21;100.00;103622.91;4788862;29;20625;-69
2023/12/17 01:06:59;;;;;;;13.23;11.00;;;;;;;9.21;100.00;103614.75;4787658;29;20524;-69
2023/12/17 01:09:47;;;;;;;14.25;12.10;;;;;;;9.23;100.00;103612.69;4787008;30;20052;-69
2023/12/17 01:12:35;;;;;;;14.60;11.68;;;;;;;9.24;100.00;103619.00;4783542;30;20424;-69
2023/12/17 01:15:23;;;;;;;13.43;10.75;;;;;;;9.24;100.00;103625.28;4788788;30;20061;-69
2023/12/17 01:18:11;;;;;;;13.85;11.20;;;;;;;9.24;100.00;103635.34;4786314;30;20132;-69
2023/12/17 01:21:00;;;;;;;16.17;11.68;;;;;;;9.23;100.00;103639.91;4788426;29;20641;-69
2023/12/17 01:23:48;;;;;;;12.90;11.57;;;;;;;9.21;100.00;103639.25;4789839;29;20066;-68
2023/12/17 01:26:37;;;;;;;13.95;10.88;;;;;;;9.23;100.00;103633.63;4784849;29;20074;-69
2023/12/17 01:29:25;;;;;;;14.48;11.07;;;;;;;9.24;100.00;103635.34;4789648;30;20101;-68
2023/12/17 01:32:13;;;;;;;13.88;11.02;;;;;;;9.25;100.00;103640.56;4775374;30;20148;-69
2023/12/17 01:35:01;;;;;;;14.43;11.23;;;;;;;9.24;100.00;103652.50;4769467;30;20047;-69
2023/12/17 01:37:49;;;;;;;14.40;11.48;;;;;;;9.24;100.00;103649.78;4773600;30;20047;-68
2023/12/17 01:40:39;;;;;;;16.80;12.05;;;;;;;9.23;100.00;103645.34;4756959;30;20050;-69
2023/12/17 01:43:28;;;;;;;13.57;11.85;;;;;;;9.24;100.00;103646.22;4774706;30;20409;-69
2023/12/17 01:46:16;;;;;;;15.00;12.20;;;;;;;9.25;100.00;103643.28;4791369;29;20532;-69
2023/12/17 01:49:04;;;;;;;14.07;11.43;;;;;;;9.26;100.00;103638.69;4788490;30;20181;-69
2023/12/17 01:51:53;;;;;;;14.55;12.05;;;;;;;9.26;100.00;103645.00;4790060;29;20561;-69
2023/12/17 01:54:41;;;;;;;14.25;11.68;;;;;;;9.28;100.00;103648.34;4789612;30;20048;-68
2023/12/17 01:57:29;;;;;;;15.30;11.65;;;;;;;9.27;100.00;103641.22;4766980;30;20047;-69
2023/12/17 02:00:18;;;;;;;14.48;11.15;;;;;;;9.27;100.00;103635.78;4761240;30;20083;-69
2023/12/17 02:03:06;;;;;;;11.98;10.15;;;;;;;9.27;100.00;103652.09;4789153;30;20519;-69
2023/12/17 02:05:54;;;;;;;13.82;9.98;;;;;;;9.27;100.00;103643.09;4765095;30;20079;-68
2023/12/17 02:08:42;;;;;;;11.88;9.00;;;;;;;9.27;100.00;103641.22;4791467;29;20051;-69
2023/12/17 02:11:30;;;;;;;12.05;9.65;;;;;;;9.27;100.00;103643.09;4765668;30;20722;-68
2023/12/17 02:14:18;;;;;;;11.00;9.18;;;;;;;9.27;100.00;103646.66;4791133;29;20056;-69
2023/12/17 02:17:06;;;;;;;12.50;9.57;;;;;;;9.28;100.00;103647.50;4788088;30;20048;-69
2023/12/17 02:19:54;;;;;;;12.45;9.90;;;;;;;9.28;100.00;103642.06;4791582;29;20051;-69
2023/12/17 02:22:44;;;;;;;14.88;11.20;;;;;;;9.27;100.00;103635.78;4777591;29;20528;-68
2023/12/17 02:25:32;;;;;;;15.88;11.90;;;;;;;9.26;100.00;103639.53;4764815;30;20140;-69
2023/12/17 02:28:20;;;;;;;15.57;11.07;;;;;;;9.28;100.00;103636.63;4789358;30;20059;-69
2023/12/17 02:31:08;;;;;;;16.70;12.23;;;;;;;9.27;100.00;103637.66;4748283;30;20052;-69
2023/12/17 02:33:56;;;;;;;13.82;10.68;;;;;;;9.26;100.00;103634.09;4769217;30;20177;-69
2023/12/17 02:36:44;;;;;;;15.00;12.13;;;;;;;9.25;100.00;103643.28;4790395;30;20058;-68
2023/12/17 02:39:32;;;;;;;14.85;11.70;;;;;;;9.25;100.00;103643.28;4777169;30;20060;-68
2023/12/17 02:42:21;;;;;;;15.25;10.80;;;;;;;9.25;100.00;103629.69;4788734;30;20131;-69
2023/12/17 02:45:10;;;;;;;15.75;11.93;;;;;;;9.25;100.00;103637.84;4791719;30;20209;-69
2023/12/17 02:47:58;;;;;;;15.35;11.35;;;;;;;9.26;100.00;103636.81;4788722;29;20055;-66
2023/12/17 02:50:46;;;;;;;16.95;10.70;;;;;;;9.26;100.00;103639.53;4812764;29;20047;-67
2023/12/17 02:53:34;;;;;;;13.43;10.55;;;;;;;9.25;100.00;103632.41;4794296;30;20142;-67
2023/12/17 02:56:22;;;;;;;12.90;9.80;;;;;;;9.25;100.00;103623.41;4791264;30;20055;-66
2023/12/17 02:59:12;;;;;;;12.73;8.90;;;;;;;9.24;100.00;103628.00;4798776;30;20047;-65
2023/12/17 03:02:00;;;;;;;11.25;7.65;;;;;;;9.25;100.00;103624.25;4781218;30;20526;-68
2023/12/17 03:04:48;;;;;;;11.15;7.15;;;;;;;9.25;100.00;103615.25;4792020;29;20055;-69
2023/12/17 03:07:36;;;;;;;10.77;6.57;;;;;;;9.25;100.00;103624.25;4790048;30;20055;-68
2023/12/17 03:10:25;;;;;;;8.82;5.78;;;;;;;9.24;100.00;103619.84;4790011;29;20543;-69
2023/12/17 03:13:13;;;;;;;9.05;6.00;;;;;;;9.23;100.00;103623.56;4788451;29;20059;-69
2023/12/17 03:16:00;;;;;;;10.57;6.32;;;;;;;9.21;100.00;103614.75;4789762;30;20047;-69
2023/12/17 03:18:48;;;;;;;12.38;6.70;;;;;;;9.21;100.00;103620.19;4773322;30;20060;-69
2023/12/17 03:21:37;;;;;;;9.55;6.28;;;;;;;9.23;100.00;103618.13;4789331;30;20216;-69
2023/12/17 03:24:24;;;;;;;9.05;6.30;;;;;;;9.24;100.00;103624.44;4787835;30;20071;-69
2023/12/17 03:27:12;;;;;;;10.57;6.07;;;;;;;9.24;100.00;103619.84;4775771;30;20051;-69
2023/12/17 03:30:00;;;;;;;9.05;5.97;;;;;;;9.25;100.00;103610.63;4789239;29;20412;-69
2023/12/17 03:32:48;;;;;;;11.02;6.13;;;;;;;9.25;100.00;103607.91;4788956;30;20493;-69
2023/12/17 03:35:37;;;;;;;10.38;6.57;;;;;;;9.25;100.00;103605.19;4788108;30;20058;-68
2023/12/17 03:38:25;;;;;;;12.18;7.30;;;;;;;9.25;100.00;103599.75;4775577;30;20132;-69
2023/12/17 03:41:27;;;;;;;10.85;7.25;;;;;;;9.27;100.00;103603.13;4770359;29;20043;-69
2023/12/17 03:44:15;;;;;;;10.15;7.20;;;;;;;9.26;100.00;103606.91;4801423;29;20173;-69
2023/12/17 03:47:03;;;;;;;10.98;8.32;;;;;;;9.27;100.00;103597.69;4789270;30;20047;-69
2023/12/17 03:49:50;;;;;;;13.45;9.30;;;;;;;9.28;100.00;103596.63;4789108;29;20047;-68
2023/12/17 03:52:38;;;;;;;12.95;9.02;;;;;;;9.28;100.00;103593.09;4774726;30;20144;-69
2023/12/17 03:55:26;;;;;;;13.65;10.75;;;;;;;9.29;100.00;103595.63;4788356;30;20048;-69
2023/12/17 03:58:14;;;;;;;17.10;11.07;;;;;;;9.29;100.00;103595.63;4774618;30;20107;-69
2023/12/17 04:01:03;;;;;;;17.00;13.20;;;;;;;9.30;100.00;103591.84;4787739;30;20196;-69
2023/12/17 04:03:51;;;;;;;15.88;11.93;;;;;;;9.31;100.00;103588.13;4775164;30;20101;-69
2023/12/17 04:06:43;;;;;;;17.23;13.38;;;;;;;9.30;100.00;103580.97;4786923;29;20056;-69
2023/12/17 04:09:31;;;;;;;17.65;14.98;;;;;;;9.31;100.00;103576.41;4788193;29;20059;-68
2023/12/17 04:12:19;;;;;;;18.65;15.68;;;;;;;9.30;100.00;103575.53;4789253;29;20062;-68
2023/12/17 04:15:08;;;;;;;17.42;14.23;;;;;;;9.30;100.00;103580.13;4788557;30;20531;-69
2023/12/17 04:17:56;;;;;;;15.23;12.23;;;;;;;9.30;100.00;103572.81;4747875;30;20522;-69
2023/12/17 04:20:44;;;;;;;14.38;11.57;;;;;;;9.30;100.00;103572.81;4777721;30;20075;-69
2023/12/17 04:23:31;;;;;;;16.63;13.55;;;;;;;9.30;100.00;103570.09;4795954;30;20067;-69
2023/12/17 04:26:20;;;;;;;14.00;12.48;;;;;;;9.29;100.00;103568.41;4775343;30;20054;-69
2023/12/17 04:29:08;;;;;;;13.80;11.73;;;;;;;9.29;100.00;103557.53;4778891;30;20441;-69
2023/12/17 04:31:55;;;;;;;13.55;11.10;;;;;;;9.28;100.00;103564.00;4778046;30;20496;-69
2023/12/17 04:34:43;;;;;;;15.13;10.80;;;;;;;9.29;100.00;103552.09;4788751;29;20055;-69
2023/12/17 04:37:31;;;;;;;16.70;12.05;;;;;;;9.29;100.00;103562.97;4800407;29;20051;-69
2023/12/17 04:40:19;;;;;;;13.73;10.77;;;;;;;9.32;100.00;103564.47;4790906;29;20111;-70
2023/12/17 04:43:07;;;;;;;12.80;8.70;;;;;;;9.33;100.00;103552.53;4788447;30;20055;-69
2023/12/17 04:45:55;;;;;;;13.00;8.43;;;;;;;9.31;100.00;103560.91;4788784;29;20052;-69
2023/12/17 04:48:43;;;;;;;12.38;8.30;;;;;;;9.33;100.00;103564.28;4781715;30;20085;-69
2023/12/17 04:51:31;;;;;;;10.80;7.88;;;;;;;9.35;100.00;103559.47;4788581;29;20054;-69
2023/12/17 04:54:19;;;;;;;11.18;7.38;;;;;;;9.32;100.00;103562.59;4788728;29;20750;-69
2023/12/17 04:57:08;;;;;;;11.57;7.50;;;;;;;9.32;100.00;103561.75;4786796;29;20043;-70
2023/12/17 04:59:56;;;;;;;10.52;7.63;;;;;;;9.34;100.00;103554.25;4787282;30;20478;-70
2023/12/17 05:02:45;;;;;;;10.00;7.60;;;;;;;9.31;100.00;103555.47;4775677;30;20137;-70
2023/12/17 05:05:33;;;;;;;12.35;8.73;;;;;;;9.31;100.00;103560.91;4788004;30;20047;-71
2023/12/17 05:08:22;;;;;;;13.98;8.73;;;;;;;9.23;100.00;103552.00;4774048;29;20050;-70
2023/12/17 05:11:09;;;;;;;16.63;8.50;;;;;;;9.22;100.00;103548.44;4762308;30;20054;-68
2023/12/17 05:13:59;;;;;;;11.25;8.77;;;;;;;9.21;100.00;103548.63;4769648;30;20055;-70
2023/12/17 05:16:47;;;;;;;12.77;9.02;;;;;;;9.18;100.00;103549.84;4776741;30;20098;-70
2023/12/17 05:19:35;;;;;;;11.90;8.43;;;;;;;9.17;100.00;103553.63;4786537;30;20047;-70
2023/12/17 05:22:23;;;;;;;10.15;7.35;;;;;;;9.20;100.00;103561.41;4786828;30;20066;-70
2023/12/17 05:25:11;;;;;;;10.27;6.78;;;;;;;9.26;100.00;103555.22;4788092;30;20074;-69
2023/12/17 05:28:03;;;;;;;11.68;7.93;;;;;;;9.26;100.00;103560.66;4776859;30;20092;-68
2023/12/17 05:30:52;;;;;;;10.85;7.30;;;;;;;9.25;100.00;103558.94;4757943;30;20097;-70
2023/12/17 05:33:41;;;;;;;11.90;8.45;;;;;;;9.26;100.00;103552.47;4773292;30;20063;-70
2023/12/17 05:36:29;;;;;;;6.90;4.10;;;;;;;9.28;100.00;103544.94;4773915;30;20055;-70
2023/12/17 05:39:17;;;;;;;13.93;9.45;;;;;;;9.25;100.00;103553.50;4788112;30;20138;-69
2023/12/17 05:42:06;;;;;;;13.18;9.30;;;;;;;9.23;100.00;103552.84;4775186;30;20540;-68
2023/12/17 05:44:54;;;;;;;13.40;9.98;;;;;;;9.24;100.00;103551.00;4787552;30;20062;-68
2023/12/17 05:47:42;;;;;;;11.00;8.77;;;;;;;9.23;100.00;103547.41;4775308;29;20047;-69
2023/12/17 05:50:30;;;;;;;13.55;9.80;;;;;;;9.23;100.00;103541.97;4788295;29;20405;-70
2023/12/17 05:53:18;;;;;;;13.05;9.80;;;;;;;9.22;100.00;103540.28;4788899;29;20188;-70
2023/12/17 05:56:10;;;;;;;13.32;9.73;;;;;;;9.22;100.00;103543.00;4769689;30;20138;-70
2023/12/17 05:58:58;;;;;;;16.38;10.95;;;;;;;9.21;100.00;103538.59;4787626;30;20082;-69
2023/12/17 06:01:46;;;;;;;16.48;10.75;;;;;;;9.20;100.00;103536.09;4774889;30;20047;-69
2023/12/17 06:04:34;;;;;;;14.45;11.23;;;;;;;9.18;100.00;103538.97;4786207;30;20069;-69
2023/12/17 06:07:21;;;;;;;16.33;11.88;;;;;;;9.15;100.00;103539.38;4773683;30;20104;-69
2023/12/17 06:10:10;;;;;;;17.65;11.88;;;;;;;9.13;100.00;103542.28;4785850;30;20509;-71
2023/12/17 06:12:58;;;;;;;15.48;11.75;;;;;;;9.15;100.00;103540.22;4775059;30;20056;-70
2023/12/17 06:15:46;;;;;;;15.88;11.50;;;;;;;9.15;100.00;103545.66;4798143;29;20057;-70
2023/12/17 06:18:34;;;;;;;17.67;12.85;;;;;;;9.14;100.00;103537.69;4777079;30;20935;-69
2023/12/17 06:21:27;;;;;;;18.10;13.70;;;;;;;9.13;100.00;103536.00;4772319;30;20059;-69
2023/12/17 06:24:15;;;;;;;18.92;14.27;;;;;;;9.12;100.00;103545.19;4785648;30;20082;-70
2023/12/17 06:27:03;;;;;;;18.77;14.52;;;;;;;9.12;100.00;103547.94;4774243;30;20138;-69
2023/12/17 06:29:52;;;;;;;17.63;13.63;;;;;;;9.14;100.00;103548.59;4762774;30;20074;-70
2023/12/17 06:32:41;;;;;;;19.00;13.68;;;;;;;9.15;100.00;103547.53;4788336;30;20066;-70
2023/12/17 06:35:29;;;;;;;16.55;12.70;;;;;;;9.16;100.00;103554.66;4790721;30;20058;-70
2023/12/17 06:38:17;;;;;;;15.23;12.02;;;;;;;9.16;100.00;103549.22;4776217;30;20051;-69
2023/12/17 06:41:05;;;;;;;12.60;8.35;;;;;;;9.19;100.00;103548.84;4764645;29;20071;-69
2023/12/17 06:43:53;;;;;;;13.85;9.55;;;;;;;9.21;100.00;103544.03;4776317;30;20595;-70
2023/12/17 06:46:41;;;;;;;14.70;9.85;;;;;;;9.19;100.00;103543.41;4790259;30;20059;-71
2023/12/17 06:49:30;;;;;;;14.45;10.02;;;;;;;9.16;100.00;103541.91;4775901;30;20047;-71
2023/12/17 06:52:18;;;;;;;12.93;9.48;;;;;;;9.15;100.00;103544.81;4783026;30;20051;-70
2023/12/17 06:55:06;;;;;;;11.60;8.77;;;;;;;9.13;100.00;103541.44;4777577;30;20113;-68
2023/12/17 06:57:54;;;;;;;12.23;9.55;;;;;;;9.10;100.00;103544.53;4791536;30;20564;-69
2023/12/17 07:00:42;;;;;;;15.35;9.10;;;;;;;9.10;100.00;103550.81;4794221;30;20047;-69
2023/12/17 07:03:30;;;;;;;11.82;8.60;;;;;;;9.11;100.00;103548.94;4795830;30;20047;-66
2023/12/17 07:06:19;;;;;;;12.23;8.88;;;;;;;9.07;100.00;103548.50;4795678;30;20063;-69
2023/12/17 07:09:07;;;;;;;11.90;8.18;;;;;;;9.07;100.00;103547.66;4794599;30;20520;-69
2023/12/17 07:11:57;;;;;;;11.73;6.43;;;;;;;9.09;100.00;103556.44;4783430;30;20074;-68
2023/12/17 07:14:46;;;;;;;11.27;7.88;;;;;;;9.08;100.00;103560.22;4799324;30;20069;-66
2023/12/17 07:17:34;;;;;;;12.70;9.23;;;;;;;9.05;100.00;103569.59;4783602;30;20051;-70
2023/12/17 07:20:22;;;;;;;13.25;9.30;;;;;;;9.04;100.00;103570.59;4793293;30;20065;-71
2023/12/17 07:23:10;;;;;;;13.07;9.52;;;;;;;9.03;100.00;103563.50;4135249;29;10000249;-68
2023/12/17 07:25:57;;;;;;;13.55;9.77;;;;;;;9.01;100.00;103565.56;4800184;30;20055;-68
2023/12/17 07:28:46;;;;;;;12.02;8.50;;;;;;;9.00;100.00;103569.31;4784679;30;20522;-69
2023/12/17 07:31:34;;;;;;;12.73;9.23;;;;;;;8.99;100.00;103567.63;4762026;30;20108;-70
2023/12/17 07:34:22;;;;;;;12.02;9.20;;;;;;;9.01;100.00;103564.72;4763987;30;20055;-69
2023/12/17 07:37:10;;;;;;;12.10;8.90;;;;;;;8.99;100.00;103574.94;4785363;30;20592;-69
2023/12/17 07:39:58;;;;;;;11.95;8.75;;;;;;;8.99;100.00;103564.06;4785938;29;20059;-69
2023/12/17 07:42:46;;;;;;;11.02;8.20;;;;;;;8.99;100.00;103566.78;4783238;30;20051;-69
2023/12/17 07:45:34;;;;;;;11.70;8.52;;;;;;;8.99;100.00;103567.63;4772235;30;20052;-69
2023/12/17 07:48:22;;;;;;;11.05;8.18;;;;;;;9.01;100.00;103570.16;4774784;29;20094;-70
2023/12/17 07:51:10;;;;;;;11.18;7.28;;;;;;;9.02;100.00;103571.84;4754862;30;20440;-69
2023/12/17 07:53:58;;;;;;;12.80;8.95;;;;;;;9.02;100.00;103571.84;4783378;30;20055;-69
2023/12/17 07:56:46;;;;;;;11.50;7.85;;;;;;;9.03;100.00;103584.41;4770555;30;20052;-69
2023/12/17 07:59:34;;;;;;;11.80;6.97;;;;;;;9.03;100.00;103573.53;4780207;30;20062;-68
2023/12/17 08:02:22;;;;;;;12.00;6.78;;;;;;;9.11;100.00;103578.84;4771246;30;20051;-68
2023/12/17 08:05:10;;;;;;;10.98;7.90;;;;;;;9.07;100.00;103580.28;4785480;29;20424;-68
2023/12/17 08:07:58;;;;;;;12.57;7.95;;;;;;;9.01;100.00;103578.31;4771825;30;20135;-69
2023/12/17 08:10:46;;;;;;;10.20;7.03;;;;;;;8.99;100.00;103578.50;4772129;30;20056;-68
2023/12/17 08:13:35;;;;;;;12.40;8.20;;;;;;;9.00;100.00;103585.66;4771716;30;20198;-68
2023/12/17 08:16:23;;;;;;;10.48;7.22;;;;;;;8.99;100.00;103583.94;4785710;30;20139;-68
2023/12/17 08:19:18;;;;;;;12.98;8.13;;;;;;;8.99;100.00;103574.94;4773779;30;20508;-69
2023/12/17 08:22:06;;;;;;;12.00;8.25;;;;;;;9.00;100.00;103573.94;4787892;30;20519;-69
2023/12/17 08:24:54;;;;;;;12.45;8.52;;;;;;;9.00;100.00;103582.09;4789515;30;20159;-69
2023/12/17 08:27:42;;;;;;;11.43;7.70;;;;;;;9.01;100.00;103581.88;4786673;30;20414;-70
2023/12/17 08:30:31;;;;;;;12.18;8.07;;;;;;;9.00;100.00;103582.09;4775174;30;20051;-68
2023/12/17 08:33:19;;;;;;;11.40;7.90;;;;;;;9.02;100.00;103580.88;4774697;30;20188;-69
2023/12/17 08:36:08;;;;;;;10.90;6.88;;;;;;;9.01;100.00;103581.03;4775116;30;20133;-69
2023/12/17 08:38:56;;;;;;;12.73;8.18;;;;;;;9.01;100.00;103581.03;4786636;30;20552;-69
2023/12/17 08:41:44;;;;;;;11.63;8.45;;;;;;;8.99;100.00;103578.50;4788242;30;20133;-69
2023/12/17 08:44:33;;;;;;;13.07;8.25;;;;;;;9.00;100.00;103582.09;4775301;30;20176;-68
2023/12/17 08:47:22;;;;;;;11.00;7.45;;;;;;;9.02;100.00;103580.88;4775546;30;20117;-67
2023/12/17 08:50:10;;;;;;;12.52;8.25;;;;;;;9.02;100.00;103585.44;4762805;30;20504;-68
2023/12/17 08:52:58;;;;;;;15.40;8.70;;;;;;;9.06;100.00;103575.88;4774875;30;20191;-68
2023/12/17 08:55:46;;;;;;;13.88;7.53;;;;;;;9.13;100.00;103576.81;4775512;30;20130;-69
2023/12/17 08:58:34;;;;;;;11.35;7.75;;;;;;;9.07;100.00;103575.69;4788347;30;20071;-69
2023/12/17 09:01:22;;;;;;;10.63;7.22;;;;;;;9.00;100.00;103579.38;4775578;30;20199;-68
2023/12/17 09:04:10;;;;;;;11.10;7.03;;;;;;;9.03;100.00;103578.97;4789176;29;20051;-69
2023/12/17 09:06:58;;;;;;;14.07;7.03;;;;;;;9.01;100.00;103571.00;4788443;30;20254;-68
2023/12/17 09:09:46;;;;;;;10.07;6.75;;;;;;;8.99;100.00;103572.22;4797837;29;20094;-69
2023/12/17 09:12:34;;;;;;;9.98;6.93;;;;;;;8.94;100.00;103565.47;4799971;29;20633;-69
2023/12/17 09:15:22;;;;;;;18.27;7.55;;;;;;;9.05;100.00;103563.31;4786649;30;20174;-69
2023/12/17 09:18:11;;;;;;;11.63;7.38;;;;;;;9.05;100.00;103566.03;4787293;30;20051;-69
2023/12/17 09:20:59;;;;;;;11.73;7.13;;;;;;;9.01;100.00;103564.72;4789081;30;20116;-69
2023/12/17 09:23:47;;;;;;;10.60;6.65;;;;;;;8.93;100.00;103577.38;4789199;29;20061;-68
2023/12/17 09:26:35;;;;;;;10.88;6.70;;;;;;;8.90;100.00;103575.06;4776555;30;20424;-68
2023/12/17 09:29:23;;;;;;;9.55;7.30;;;;;;;8.87;100.00;103578.13;4788535;30;20054;-69
2023/12/17 09:32:11;;;;;;;9.48;7.03;;;;;;;8.86;100.00;103572.91;4767870;30;20501;-68
2023/12/17 09:35:00;;;;;;;13.90;8.43;;;;;;;8.90;100.00;103569.63;4788796;30;20055;-68
2023/12/17 09:37:48;;;;;;;10.63;8.25;;;;;;;8.82;100.00;103572.41;4775826;30;20051;-69
2023/12/17 09:40:37;;;;;;;10.63;8.25;;;;;;;8.77;100.00;103579.47;4788897;29;20067;-67
2023/12/17 09:43:26;;;;;;;12.18;7.90;;;;;;;8.78;100.00;103582.00;4774805;30;20394;-69
2023/12/17 09:46:14;;;;;;;11.35;8.57;;;;;;;8.79;100.00;103580.13;4753021;30;20409;-68
2023/12/17 09:49:02;;;;;;;18.40;8.38;;;;;;;8.93;100.00;103596.44;4787513;30;20093;-69
2023/12/17 09:52:01;;;;;;;15.32;9.73;;;;;;;8.92;100.00;103597.47;4787998;30;20055;-69
2023/12/17 09:54:51;;;;;;;16.55;8.63;;;;;;;8.94;100.00;103592.66;4788113;30;20130;-69
2023/12/17 09:57:39;;;;;;;23.45;9.68;;;;;;;9.09;100.00;103584.50;4774872;30;20052;-69
2023/12/17 10:00:28;;;;;;;13.85;8.95;;;;;;;8.93;100.00;103599.16;4776066;29;20062;-68
2023/12/17 10:03:16;;;;;;;13.50;9.82;;;;;;;8.83;100.00;103593.16;4788404;29;20051;-68
2023/12/17 10:06:04;;;;;;;11.68;9.13;;;;;;;8.84;100.00;103585.84;4777130;30;20055;-68
2023/12/17 10:08:58;;;;;;;11.90;9.13;;;;;;;8.70;100.00;103591.06;4777686;30;20149;-69
2023/12/17 10:11:47;;;;;;;13.10;7.07;;;;;;;8.72;100.00;103593.63;4792104;29;20134;-69
2023/12/17 10:14:35;;;;;;;16.77;9.20;;;;;;;8.85;100.00;103591.09;4790151;30;20066;-68
2023/12/17 10:17:23;;;;;;;14.98;10.05;;;;;;;8.83;100.00;103595.88;4792204;29;20051;-68
2023/12/17 10:20:18;;;;;;;16.77;8.27;;;;;;;8.82;100.00;103594.16;4791028;30;20051;-69
2023/12/17 10:23:06;;;;;;;15.57;10.57;;;;;;;8.87;100.00;103605.31;4794393;29;20138;-68
2023/12/17 10:26:01;;;;;;;13.73;8.45;;;;;;;8.79;100.00;103604.59;4792277;30;20059;-68
2023/12/17 10:28:52;;;;;;;15.43;8.48;;;;;;;8.74;100.00;103595.13;4802059;30;20057;-68
2023/12/17 10:31:41;;;;;;;14.07;10.15;;;;;;;8.68;100.00;103597.72;4809578;29;20051;-68
2023/12/17 10:34:30;;;;;;;16.27;10.52;;;;;;;8.73;100.00;103589.84;4777444;30;20047;-68
2023/12/17 10:37:19;;;;;;;17.45;9.93;;;;;;;8.71;100.00;103592.78;4765945;30;20066;-70
2023/12/17 10:40:09;;;;;;;14.30;10.35;;;;;;;8.73;100.00;103589.84;4777214;30;20058;-68
2023/12/17 10:42:59;;;;;;;15.45;11.07;;;;;;;8.71;100.00;103586.50;4777828;30;20043;-68
2023/12/17 10:45:48;;;;;;;14.25;10.63;;;;;;;8.67;100.00;103585.19;4778085;30;20055;-68
2023/12/17 10:48:36;;;;;;;14.15;10.68;;;;;;;8.64;100.00;103575.53;4783526;30;20066;-69
2023/12/17 10:51:25;;;;;;;17.75;11.13;;;;;;;8.62;100.00;103582.19;4776990;30;20517;-68
2023/12/17 10:54:14;;;;;;;14.05;10.68;;;;;;;8.61;100.00;103569.59;4788932;30;20079;-68
2023/12/17 10:57:03;;;;;;;16.63;11.65;;;;;;;8.55;100.00;103570.38;4789572;29;20463;-68
2023/12/17 10:59:52;;;;;;;17.15;11.38;;;;;;;8.55;100.00;103573.09;4789504;29;20047;-68
2023/12/17 11:02:40;;;;;;;17.23;11.63;;;;;;;8.57;100.00;103573.75;4789096;30;20063;-68
2023/12/17 11:05:28;;;;;;;15.32;10.23;;;;;;;8.61;100.00;103558.75;4789439;30;20112;-68
2023/12/17 11:08:16;;;;;;;20.58;13.30;;;;;;;8.59;100.00;103560.84;4789378;29;20505;-69
2023/12/17 11:11:04;;;;;;;19.33;12.02;;;;;;;8.64;100.00;103550.22;4777495;29;20047;-68
2023/12/17 11:13:53;;;;;;;19.77;12.98;;;;;;;8.62;100.00;103538.69;4787651;30;20086;-68
2023/12/17 11:16:41;;;;;;;18.55;11.43;;;;;;;8.72;100.00;103536.53;4790358;29;20147;-67
2023/12/17 11:19:29;;;;;;;16.80;10.88;;;;;;;8.69;100.00;103526.03;4808172;30;20097;-66
2023/12/17 11:22:17;;;;;;;17.30;9.13;;;;;;;8.85;100.00;103514.97;4780712;30;20054;-68
2023/12/17 11:25:14;;;;;;;22.17;13.63;;;;;;;8.86;100.00;103508.50;4794911;30;20120;-68
2023/12/17 11:28:03;;;;;;;19.42;12.02;;;;;;;8.80;100.00;103506.50;4802860;30;20066;-65
2023/12/17 11:30:51;;;;;;;20.00;12.27;;;;;;;8.79;100.00;103506.72;4803346;30;20070;-69
2023/12/17 11:33:40;;;;;;;17.48;8.50;;;;;;;8.87;100.00;103503.88;4800855;30;20196;-70
2023/12/17 11:36:31;;;;;;;23.42;13.70;;;;;;;8.96;100.00;103505.47;4806998;30;20066;-68
2023/12/17 11:39:19;;;;;;;21.23;11.95;;;;;;;8.89;100.00;103491.78;4788751;29;20048;-67
2023/12/17 11:42:07;;;;;;;23.15;13.75;;;;;;;8.88;100.00;103492.00;4773242;30;20056;-69
2023/12/17 11:44:55;;;;;;;17.85;12.32;;;;;;;8.86;100.00;103486.75;4771917;30;20062;-69
2023/12/17 11:47:43;;;;;;;15.65;9.57;;;;;;;8.89;100.00;103480.91;4770365;30;20535;-68
2023/12/17 11:50:56;;;;;;;27.48;13.48;;;;;;;8.88;100.00;103479.25;4781891;29;20178;-69
2023/12/17 11:53:45;;;;;;;21.83;12.57;;;;;;;8.89;100.00;103480.91;4789301;30;20523;-69
2023/12/17 11:56:33;;;;;;;22.42;11.32;;;;;;;8.88;100.00;103475.69;4788358;30;20142;-69
2023/12/17 11:59:32;;;;;;;18.20;8.68;;;;;;;8.88;100.00;103473.81;4787373;30;20052;-69
2023/12/17 12:02:22;;;;;;;16.65;7.53;;;;;;;8.92;100.00;103471.53;4786021;30;20060;-69
2023/12/17 12:05:10;;;;;;;20.25;9.35;;;;;;;8.90;100.00;103468.19;4769486;30;20051;-68
2023/12/17 12:07:58;;;;;;;18.98;8.23;;;;;;;8.86;100.00;103459.53;4789216;30;20100;-67
2023/12/17 12:10:49;;;;;;;17.98;8.23;;;;;;;8.98;100.00;103468.06;4774698;30;20552;-67
2023/12/17 12:13:40;;;;;;;23.70;8.80;;;;;;;8.99;100.00;103463.44;4776011;30;20055;-68
2023/12/17 12:16:39;;;;;;;15.48;7.55;;;;;;;8.94;100.00;103453.97;4789002;30;20496;-68
2023/12/17 12:19:27;;;;;;;15.55;6.85;;;;;;;9.06;100.00;103448.03;4114991;30;10000682;-68
2023/12/17 12:22:19;;;;;;;21.58;8.82;;;;;;;9.05;100.00;103440.94;4774058;30;20048;-70
2023/12/17 12:25:07;;;;;;;26.17;9.25;;;;;;;9.05;100.00;103440.94;4785070;30;20482;-68
2023/12/17 12:27:55;;;;;;;18.83;7.22;;;;;;;9.01;100.00;103439.63;4769574;30;20051;-69
2023/12/17 12:30:44;;;;;;;21.52;8.50;;;;;;;9.00;100.00;103427.09;4772318;30;20252;-69
2023/12/17 12:33:33;;;;;;;20.83;8.25;;;;;;;9.06;100.00;103421.69;4772926;30;20055;-68
2023/12/17 12:36:21;;;;;;;22.08;9.15;;;;;;;9.11;100.00;103418.38;4782765;30;20066;-69
2023/12/17 12:39:10;;;;;;;24.42;10.75;;;;;;;9.03;100.00;103419.38;4783425;30;20047;-69
2023/12/17 12:41:58;;;;;;;22.85;9.77;;;;;;;8.98;100.00;103413.66;4772129;30;20051;-69
2023/12/17 12:44:46;;;;;;;24.50;9.48;;;;;;;8.96;100.00;103410.28;4773032;30;20464;-68
2023/12/17 12:47:34;;;;;;;23.45;9.30;;;;;;;8.94;100.00;103407.75;4747086;30;20497;-68
2023/12/17 12:50:22;;;;;;;21.65;10.13;;;;;;;9.00;100.00;103399.88;4771709;30;20437;-67
2023/12/17 12:53:10;;;;;;;27.00;9.77;;;;;;;9.03;100.00;103394.06;4783921;29;20063;-68